Mustafa Sofuoglu — TCOJ7 — position and weather

sailwx.info

Track history (hours):
 
Tides and Currents Weather Stations Pressure Air Temp Water Temp Dewpoint Dewpoint Depression Visibility Wind Speed Wind Dir Waves Ship Positions

Mustafa Sofuoglu

Last reported at 2016-Aug-21 21:33 UTC. Time now 2016-Aug-24 06:42 UTC.
Position N 40°44' E 029°24'.

Length 106 m; draft 6.9 m.

Type: Cargo ship. MMSI: 271000831.

Date/timePositionNaut miles runAvg speedWind from/ knotsBaromVisibWave heightAir tempDewpointWater temp
2016-Aug-21 21:33N 40°44' E 029°24'1111.5
2016-Aug-21 20:33N 40°47' E 029°10'1211.7
2016-Aug-21 19:31N 40°54' E 028°57'33710.7
2016-Aug-20 12:08N 46°20' E 030°55'712.1
2016-Aug-20 11:31N 46°28' E 030°55'33 9.9
2016-Aug-20 08:10N 46°36' E 031°42'610.4
2016-Aug-20 07:33N 46°35' E 031°52'9 9.0
2016-Aug-20 06:33N 46°32' E 032°04'9 8.2
2016-Aug-20 05:26N 46°33' E 032°17'8 8.8
2016-Aug-20 04:29N 46°35' E 032°29'  
2016-Aug-17 10:12N 46°32' E 032°08'812.1
2016-Aug-17 09:34N 46°34' E 031°57'1212.0
2016-Aug-17 08:33N 46°36' E 031°40'2912.0
2016-Aug-17 06:08N 46°32' E 030°58'813.2
2016-Aug-17 05:31N 46°24' E 030°57'33812.5
2016-Aug-16 02:28N 40°57' E 029°00'6 6.4
2016-Aug-16 01:33N 40°54' E 029°07'4 3.4
2016-Aug-16 00:25N 40°52' E 029°11'0 0.1
2016-Aug-15 23:31N 40°52' E 029°11'0 0.0
2016-Aug-15 22:19N 40°52' E 029°11'0 0.0
2016-Aug-15 21:31N 40°52' E 029°11'0 0.0
2016-Aug-15 20:31N 40°52' E 029°11'0 0.0
2016-Aug-15 19:31N 40°52' E 029°11'0 0.0
2016-Aug-15 18:25N 40°52' E 029°11'0 0.0
2016-Aug-15 17:13N 40°52' E 029°11'0 0.0
2016-Aug-15 16:31N 40°52' E 029°11'0 0.0
2016-Aug-15 15:25N 40°52' E 029°11'0 0.0
2016-Aug-15 14:31N 40°52' E 029°11'0 0.0
2016-Aug-15 13:33N 40°52' E 029°11'0 0.0
2016-Aug-15 12:33N 40°52' E 029°11'6 5.6
2016-Aug-15 11:33N 40°47' E 029°15'1111.5
2016-Aug-15 10:33N 40°45' E 029°30'2 0.1
2016-Aug-14 10:33N 40°46' E 029°32'3 0.2
2016-Aug-13 22:22N 40°45' E 029°29'810.3
2016-Aug-13 21:33N 40°43' E 029°18'1211.8
2016-Aug-13 20:33N 40°43' E 029°03'  
Track history (hours):
 
Tides and Currents Weather Stations Pressure Air Temp Water Temp Dewpoint Dewpoint Depression Visibility Wind Speed Wind Dir Waves Ship Positions

Mustafa Sofuoglu

Last reported at 2016-Aug-21 21:33 UTC. Time now 2016-Aug-24 06:42 UTC.
Position N 40°44' E 029°24'.

Length 106 m; draft 6.9 m.

Type: Cargo ship. MMSI: 271000831.

Date/timePositionNaut miles runAvg speedWind from/ knotsBaromVisibWave heightAir tempDewpointWater temp
2016-Aug-21 21:33N 40°44' E 029°24'1111.5
2016-Aug-21 20:33N 40°47' E 029°10'1211.7
2016-Aug-21 19:31N 40°54' E 028°57'33710.7
2016-Aug-20 12:08N 46°20' E 030°55'712.1
2016-Aug-20 11:31N 46°28' E 030°55'33 9.9
2016-Aug-20 08:10N 46°36' E 031°42'610.4
2016-Aug-20 07:33N 46°35' E 031°52'9 9.0
2016-Aug-20 06:33N 46°32' E 032°04'9 8.2
2016-Aug-20 05:26N 46°33' E 032°17'8 8.8
2016-Aug-20 04:29N 46°35' E 032°29'  
2016-Aug-17 10:12N 46°32' E 032°08'812.1
2016-Aug-17 09:34N 46°34' E 031°57'1212.0
2016-Aug-17 08:33N 46°36' E 031°40'2912.0
2016-Aug-17 06:08N 46°32' E 030°58'813.2
2016-Aug-17 05:31N 46°24' E 030°57'33812.5
2016-Aug-16 02:28N 40°57' E 029°00'6 6.4
2016-Aug-16 01:33N 40°54' E 029°07'4 3.4
2016-Aug-16 00:25N 40°52' E 029°11'0 0.1
2016-Aug-15 23:31N 40°52' E 029°11'0 0.0
2016-Aug-15 22:19N 40°52' E 029°11'0 0.0
2016-Aug-15 21:31N 40°52' E 029°11'0 0.0
2016-Aug-15 20:31N 40°52' E 029°11'0 0.0
2016-Aug-15 19:31N 40°52' E 029°11'0 0.0
2016-Aug-15 18:25N 40°52' E 029°11'0 0.0
2016-Aug-15 17:13N 40°52' E 029°11'0 0.0
2016-Aug-15 16:31N 40°52' E 029°11'0 0.0
2016-Aug-15 15:25N 40°52' E 029°11'0 0.0
2016-Aug-15 14:31N 40°52' E 029°11'0 0.0
2016-Aug-15 13:33N 40°52' E 029°11'0 0.0
2016-Aug-15 12:33N 40°52' E 029°11'6 5.6
2016-Aug-15 11:33N 40°47' E 029°15'1111.5
2016-Aug-15 10:33N 40°45' E 029°30'2 0.1
2016-Aug-14 10:33N 40°46' E 029°32'3 0.2
2016-Aug-13 22:22N 40°45' E 029°29'810.3
2016-Aug-13 21:33N 40°43' E 029°18'1211.8
2016-Aug-13 20:33N 40°43' E 029°03'  

Dump ship's entire track history